sensor_id;sensor_type;location;lat;lon;timestamp;pressure;altitude;pressure_sealevel;temperature;humidity
9249;BME280;4660;41.768;26.198;2023-08-21T00:00:44;100778.41;;;22.06;99.67
9249;BME280;4660;41.768;26.198;2023-08-21T00:03:10;100789.94;;;22.35;98.76
9249;BME280;4660;41.768;26.198;2023-08-21T00:05:35;100784.91;;;22.32;99.39
9249;BME280;4660;41.768;26.198;2023-08-21T00:08:01;100779.28;;;22.13;100.00
9249;BME280;4660;41.768;26.198;2023-08-21T00:10:26;100782.00;;;22.00;100.00
9249;BME280;4660;41.768;26.198;2023-08-21T00:12:52;100783.72;;;22.01;100.00
9249;BME280;4660;41.768;26.198;2023-08-21T00:15:18;100779.13;;;21.88;100.00
9249;BME280;4660;41.768;26.198;2023-08-21T00:17:43;100780.81;;;21.83;100.00
9249;BME280;4660;41.768;26.198;2023-08-21T00:20:09;100779.53;;;21.79;100.00
9249;BME280;4660;41.768;26.198;2023-08-21T00:22:36;100780.59;;;21.78;100.00
9249;BME280;4660;41.768;26.198;2023-08-21T00:25:02;100773.06;;;21.60;100.00
9249;BME280;4660;41.768;26.198;2023-08-21T00:27:28;100775.34;;;21.56;100.00
9249;BME280;4660;41.768;26.198;2023-08-21T00:29:53;100778.09;;;21.63;100.00
9249;BME280;4660;41.768;26.198;2023-08-21T00:32:19;100766.91;;;21.64;100.00
9249;BME280;4660;41.768;26.198;2023-08-21T00:34:44;100773.44;;;21.63;100.00
9249;BME280;4660;41.768;26.198;2023-08-21T00:37:10;100774.94;;;21.46;100.00
9249;BME280;4660;41.768;26.198;2023-08-21T00:39:36;100762.31;;;21.38;100.00
9249;BME280;4660;41.768;26.198;2023-08-21T00:42:02;100759.34;;;21.27;100.00
9249;BME280;4660;41.768;26.198;2023-08-21T00:44:27;100768.00;;;21.30;100.00
9249;BME280;4660;41.768;26.198;2023-08-21T00:46:53;100757.25;;;21.29;100.00
9249;BME280;4660;41.768;26.198;2023-08-21T00:49:19;100767.38;;;21.48;100.00
9249;BME280;4660;41.768;26.198;2023-08-21T00:51:46;100772.44;;;21.45;100.00
9249;BME280;4660;41.768;26.198;2023-08-21T00:54:12;100766.06;;;21.57;100.00
9249;BME280;4660;41.768;26.198;2023-08-21T00:56:38;100758.28;;;21.74;99.88
9249;BME280;4660;41.768;26.198;2023-08-21T00:59:04;100770.28;;;21.73;100.00
9249;BME280;4660;41.768;26.198;2023-08-21T01:01:29;100764.38;;;21.69;99.98
9249;BME280;4660;41.768;26.198;2023-08-21T01:03:55;100774.09;;;21.59;100.00
9249;BME280;4660;41.768;26.198;2023-08-21T01:06:21;100762.72;;;21.55;100.00
9249;BME280;4660;41.768;26.198;2023-08-21T01:08:57;100767.78;;;21.65;100.00
9249;BME280;4660;41.768;26.198;2023-08-21T01:16:40;100779.97;;;21.76;100.00
9249;BME280;4660;41.768;26.198;2023-08-21T01:19:12;100789.66;;;21.71;100.00
9249;BME280;4660;41.768;26.198;2023-08-21T01:21:40;100781.69;;;21.37;100.00
9249;BME280;4660;41.768;26.198;2023-08-21T01:24:06;100780.22;;;21.48;100.00
9249;BME280;4660;41.768;26.198;2023-08-21T01:26:31;100784.00;;;21.53;100.00
9249;BME280;4660;41.768;26.198;2023-08-21T01:28:57;100784.22;;;21.58;100.00
9249;BME280;4660;41.768;26.198;2023-08-21T01:31:33;100783.34;;;21.64;100.00
9249;BME280;4660;41.768;26.198;2023-08-21T01:34:06;100785.91;;;21.66;100.00
9249;BME280;4660;41.768;26.198;2023-08-21T01:36:34;100778.75;;;21.65;100.00
9249;BME280;4660;41.768;26.198;2023-08-21T01:39:00;100782.31;;;21.52;100.00
9249;BME280;4660;41.768;26.198;2023-08-21T01:41:26;100767.78;;;21.32;100.00
9249;BME280;4660;41.768;26.198;2023-08-21T01:43:52;100770.75;;;21.37;100.00
9249;BME280;4660;41.768;26.198;2023-08-21T01:46:17;100786.75;;;21.40;100.00
9249;BME280;4660;41.768;26.198;2023-08-21T01:48:43;100775.13;;;21.25;100.00
9249;BME280;4660;41.768;26.198;2023-08-21T01:51:09;100777.84;;;21.18;100.00
9249;BME280;4660;41.768;26.198;2023-08-21T01:53:34;100787.13;;;21.10;100.00
9249;BME280;4660;41.768;26.198;2023-08-21T01:56:00;100785.84;;;21.13;100.00
9249;BME280;4660;41.768;26.198;2023-08-21T01:58:25;100775.31;;;20.97;100.00
9249;BME280;4660;41.768;26.198;2023-08-21T02:00:51;100785.38;;;20.83;100.00
9249;BME280;4660;41.768;26.198;2023-08-21T02:03:16;100781.00;;;20.95;100.00
9249;BME280;4660;41.768;26.198;2023-08-21T02:05:42;100783.72;;;20.95;100.00
9249;BME280;4660;41.768;26.198;2023-08-21T02:08:11;100774.63;;;20.75;100.00
9249;BME280;4660;41.768;26.198;2023-08-21T02:10:37;100787.88;;;20.78;100.00
9249;BME280;4660;41.768;26.198;2023-08-21T02:13:02;100780.72;;;20.77;100.00
9249;BME280;4660;41.768;26.198;2023-08-21T02:15:28;100783.28;;;20.85;100.00
9249;BME280;4660;41.768;26.198;2023-08-21T02:17:53;100773.63;;;20.89;100.00
9249;BME280;4660;41.768;26.198;2023-08-21T02:20:19;100774.88;;;20.93;100.00
9249;BME280;4660;41.768;26.198;2023-08-21T02:22:45;100780.34;;;20.80;100.00
9249;BME280;4660;41.768;26.198;2023-08-21T02:25:10;100782.88;;;20.88;100.00
9249;BME280;4660;41.768;26.198;2023-08-21T02:27:36;100788.16;;;20.96;100.00
9249;BME280;4660;41.768;26.198;2023-08-21T02:30:02;100783.72;;;20.95;100.00
9249;BME280;4660;41.768;26.198;2023-08-21T02:32:28;100781.19;;;20.80;100.00
9249;BME280;4660;41.768;26.198;2023-08-21T02:34:54;100785.81;;;20.86;100.00
9249;BME280;4660;41.768;26.198;2023-08-21T02:37:19;100778.66;;;20.92;100.00
9249;BME280;4660;41.768;26.198;2023-08-21T02:39:45;100782.47;;;21.04;100.00
9249;BME280;4660;41.768;26.198;2023-08-21T02:42:10;100781.19;;;21.07;100.00
9249;BME280;4660;41.768;26.198;2023-08-21T02:44:36;100783.31;;;21.11;100.00
9249;BME280;4660;41.768;26.198;2023-08-21T02:47:01;100782.06;;;21.14;100.00
9249;BME280;4660;41.768;26.198;2023-08-21T02:49:27;100777.59;;;20.93;100.00
9249;BME280;4660;41.768;26.198;2023-08-21T02:51:53;100780.28;;;20.67;100.00
9249;BME280;4660;41.768;26.198;2023-08-21T02:54:18;100781.13;;;20.60;100.00
9249;BME280;4660;41.768;26.198;2023-08-21T02:56:43;100785.28;;;20.50;100.00
9249;BME280;4660;41.768;26.198;2023-08-21T02:59:09;100778.56;;;20.52;100.00
9249;BME280;4660;41.768;26.198;2023-08-21T03:01:34;100788.63;;;20.45;100.00
9249;BME280;4660;41.768;26.198;2023-08-21T03:04:00;100792.41;;;20.44;100.00
9249;BME280;4660;41.768;26.198;2023-08-21T03:06:26;100789.84;;;20.43;100.00
9249;BME280;4660;41.768;26.198;2023-08-21T03:08:52;100791.19;;;20.53;100.00
9249;BME280;4660;41.768;26.198;2023-08-21T03:11:17;100795.59;;;20.54;100.00
9249;BME280;4660;41.768;26.198;2023-08-21T03:13:43;100788.22;;;20.48;100.00
9249;BME280;4660;41.768;26.198;2023-08-21T03:16:09;100800.47;;;20.59;100.00
9249;BME280;4660;41.768;26.198;2023-08-21T03:18:54;100791.81;;;20.55;100.00
9249;BME280;4660;41.768;26.198;2023-08-21T03:21:21;100797.47;;;20.47;100.00
9249;BME280;4660;41.768;26.198;2023-08-21T03:23:50;100796.63;;;20.47;100.00
9249;BME280;4660;41.768;26.198;2023-08-21T03:26:16;100797.88;;;20.44;100.00
9249;BME280;4660;41.768;26.198;2023-08-21T03:28:41;100795.34;;;20.49;100.00
9249;BME280;4660;41.768;26.198;2023-08-21T03:31:07;100792.00;;;20.47;100.00
9249;BME280;4660;41.768;26.198;2023-08-21T03:33:33;100803.25;;;20.31;100.00
9249;BME280;4660;41.768;26.198;2023-08-21T03:35:58;100804.66;;;20.20;100.00
9249;BME280;4660;41.768;26.198;2023-08-21T03:38:24;100808.31;;;20.34;100.00
9249;BME280;4660;41.768;26.198;2023-08-21T03:40:49;100802.66;;;20.42;100.00
9249;BME280;4660;41.768;26.198;2023-08-21T03:43:15;100796.09;;;20.30;100.00
9249;BME280;4660;41.768;26.198;2023-08-21T03:45:40;100813.88;;;20.47;100.00
9249;BME280;4660;41.768;26.198;2023-08-21T03:48:05;100805.47;;;20.55;100.00
9249;BME280;4660;41.768;26.198;2023-08-21T03:50:31;100809.22;;;20.48;100.00
9249;BME280;4660;41.768;26.198;2023-08-21T03:52:56;100812.81;;;20.48;100.00
9249;BME280;4660;41.768;26.198;2023-08-21T03:55:22;100813.41;;;20.44;100.00
9249;BME280;4660;41.768;26.198;2023-08-21T03:57:47;100806.94;;;20.51;100.00
9249;BME280;4660;41.768;26.198;2023-08-21T04:00:13;100795.31;;;20.43;100.00
9249;BME280;4660;41.768;26.198;2023-08-21T04:02:40;100807.09;;;20.43;100.00
9249;BME280;4660;41.768;26.198;2023-08-21T04:05:06;100817.78;;;20.38;100.00
9249;BME280;4660;41.768;26.198;2023-08-21T04:07:31;100814.50;;;20.49;100.00
9249;BME280;4660;41.768;26.198;2023-08-21T04:09:57;100811.81;;;20.63;100.00
9249;BME280;4660;41.768;26.198;2023-08-21T04:12:22;100832.50;;;20.85;100.00
9249;BME280;4660;41.768;26.198;2023-08-21T04:14:48;100825.50;;;20.69;100.00
9249;BME280;4660;41.768;26.198;2023-08-21T04:17:14;100826.16;;;20.78;100.00
9249;BME280;4660;41.768;26.198;2023-08-21T04:19:39;100825.97;;;20.73;100.00
9249;BME280;4660;41.768;26.198;2023-08-21T04:22:06;100815.63;;;20.68;100.00
9249;BME280;4660;41.768;26.198;2023-08-21T04:24:32;100821.47;;;20.52;100.00
9249;BME280;4660;41.768;26.198;2023-08-21T04:26:57;100811.38;;;20.52;100.00
9249;BME280;4660;41.768;26.198;2023-08-21T04:29:23;100817.31;;;20.69;100.00
9249;BME280;4660;41.768;26.198;2023-08-21T04:31:49;100818.00;;;20.91;100.00
9249;BME280;4660;41.768;26.198;2023-08-21T04:34:14;100815.72;;;21.01;100.00
9249;BME280;4660;41.768;26.198;2023-08-21T04:36:40;100821.19;;;20.95;100.00
9249;BME280;4660;41.768;26.198;2023-08-21T04:39:05;100822.69;;;21.10;100.00
9249;BME280;4660;41.768;26.198;2023-08-21T04:41:31;100819.06;;;20.90;100.00
9249;BME280;4660;41.768;26.198;2023-08-21T04:43:56;100820.81;;;21.24;100.00
9249;BME280;4660;41.768;26.198;2023-08-21T04:46:22;100815.94;;;21.20;100.00
9249;BME280;4660;41.768;26.198;2023-08-21T04:48:47;100820.19;;;21.29;100.00
9249;BME280;4660;41.768;26.198;2023-08-21T04:51:13;100803.53;;;21.10;100.00
9249;BME280;4660;41.768;26.198;2023-08-21T04:53:39;100813.66;;;21.23;100.00
9249;BME280;4660;41.768;26.198;2023-08-21T04:56:04;100798.97;;;21.44;100.00
9249;BME280;4660;41.768;26.198;2023-08-21T04:58:30;100809.03;;;21.57;100.00
9249;BME280;4660;41.768;26.198;2023-08-21T05:00:55;100807.78;;;21.79;100.00
9249;BME280;4660;41.768;26.198;2023-08-21T05:03:21;100818.31;;;21.89;100.00
9249;BME280;4660;41.768;26.198;2023-08-21T05:05:54;100810.25;;;22.07;100.00
9249;BME280;4660;41.768;26.198;2023-08-21T05:08:24;100819.75;;;22.18;100.00
9249;BME280;4660;41.768;26.198;2023-08-21T05:10:57;100810.16;;;22.47;100.00
9249;BME280;4660;41.768;26.198;2023-08-21T05:13:24;100822.53;;;22.63;100.00
9249;BME280;4660;41.768;26.198;2023-08-21T05:15:53;100823.88;;;22.92;100.00
9249;BME280;4660;41.768;26.198;2023-08-21T05:18:20;100810.81;;;22.94;100.00
9249;BME280;4660;41.768;26.198;2023-08-21T05:20:47;100811.50;;;23.14;100.00
9249;BME280;4660;41.768;26.198;2023-08-21T05:23:14;100820.28;;;23.29;100.00
9249;BME280;4660;41.768;26.198;2023-08-21T05:25:40;100813.16;;;23.47;100.00
9249;BME280;4660;41.768;26.198;2023-08-21T05:28:06;100813.69;;;23.62;100.00
9249;BME280;4660;41.768;26.198;2023-08-21T05:30:32;100823.91;;;23.80;100.00
9249;BME280;4660;41.768;26.198;2023-08-21T05:32:58;100826.22;;;24.01;100.00
9249;BME280;4660;41.768;26.198;2023-08-21T05:35:26;100833.34;;;24.09;100.00
9249;BME280;4660;41.768;26.198;2023-08-21T05:37:51;100828.06;;;24.26;100.00
9249;BME280;4660;41.768;26.198;2023-08-21T05:40:17;100826.41;;;24.43;100.00
9249;BME280;4660;41.768;26.198;2023-08-21T05:42:43;100828.41;;;24.54;99.66
9249;BME280;4660;41.768;26.198;2023-08-21T05:45:08;100835.66;;;24.67;98.83
9249;BME280;4660;41.768;26.198;2023-08-21T05:47:34;100826.47;;;24.73;97.63
9249;BME280;4660;41.768;26.198;2023-08-21T05:49:59;100817.81;;;24.88;98.20
9249;BME280;4660;41.768;26.198;2023-08-21T05:52:25;100819.22;;;25.09;96.38
9249;BME280;4660;41.768;26.198;2023-08-21T05:54:52;100822.25;;;25.19;95.43
9249;BME280;4660;41.768;26.198;2023-08-21T05:57:18;100818.78;;;25.35;94.34
9249;BME280;4660;41.768;26.198;2023-08-21T05:59:45;100824.69;;;25.39;93.98
9249;BME280;4660;41.768;26.198;2023-08-21T06:02:12;100822.91;;;25.56;93.11
9249;BME280;4660;41.768;26.198;2023-08-21T06:04:41;100840.31;;;25.68;93.74
9249;BME280;4660;41.768;26.198;2023-08-21T06:07:07;100824.41;;;25.82;90.45
9249;BME280;4660;41.768;26.198;2023-08-21T06:09:35;100833.53;;;25.94;90.77
9249;BME280;4660;41.768;26.198;2023-08-21T06:12:02;100830.63;;;26.13;89.94
9249;BME280;4660;41.768;26.198;2023-08-21T06:14:29;100821.50;;;26.24;89.50
9249;BME280;4660;41.768;26.198;2023-08-21T06:17:02;100825.78;;;26.43;89.69
9249;BME280;4660;41.768;26.198;2023-08-21T06:19:28;100820.75;;;26.52;87.34
9249;BME280;4660;41.768;26.198;2023-08-21T06:21:54;100833.25;;;26.83;84.86
9249;BME280;4660;41.768;26.198;2023-08-21T06:24:20;100838.72;;;26.95;85.11
9249;BME280;4660;41.768;26.198;2023-08-21T06:26:46;100818.31;;;26.96;84.52
9249;BME280;4660;41.768;26.198;2023-08-21T06:29:11;100840.00;;;27.32;82.70
9249;BME280;4660;41.768;26.198;2023-08-21T06:31:37;100843.69;;;27.55;81.20
9249;BME280;4660;41.768;26.198;2023-08-21T06:34:02;100840.88;;;27.66;80.00
9249;BME280;4660;41.768;26.198;2023-08-21T06:36:28;100844.41;;;27.79;79.58
9249;BME280;4660;41.768;26.198;2023-08-21T06:38:55;100844.06;;;27.92;77.97
9249;BME280;4660;41.768;26.198;2023-08-21T06:41:21;100847.69;;;28.14;75.50
9249;BME280;4660;41.768;26.198;2023-08-21T06:43:46;100826.88;;;28.29;74.06
9249;BME280;4660;41.768;26.198;2023-08-21T06:46:12;100837.94;;;28.45;73.65
9249;BME280;4660;41.768;26.198;2023-08-21T06:48:39;100841.47;;;28.63;70.91
9249;BME280;4660;41.768;26.198;2023-08-21T06:51:08;100841.16;;;28.81;70.48
9249;BME280;4660;41.768;26.198;2023-08-21T06:53:34;100845.78;;;28.97;69.04
9249;BME280;4660;41.768;26.198;2023-08-21T06:55:59;100843.13;;;29.08;67.91
9249;BME280;4660;41.768;26.198;2023-08-21T06:58:27;100851.34;;;29.24;67.81
9249;BME280;4660;41.768;26.198;2023-08-21T07:00:54;100854.88;;;29.47;65.58
9249;BME280;4660;41.768;26.198;2023-08-21T07:03:21;100851.56;;;29.50;64.87
9249;BME280;4660;41.768;26.198;2023-08-21T07:05:58;100849.72;;;29.55;63.64
9249;BME280;4660;41.768;26.198;2023-08-21T07:08:25;100813.84;;;29.49;62.13
9249;BME280;4660;41.768;26.198;2023-08-21T07:10:54;100839.13;;;29.84;59.67
9249;BME280;4660;41.768;26.198;2023-08-21T07:13:20;100828.72;;;30.07;57.40
9249;BME280;4660;41.768;26.198;2023-08-21T07:15:46;100832.72;;;30.21;57.21
9249;BME280;4660;41.768;26.198;2023-08-21T07:18:13;100836.47;;;30.47;57.33
9249;BME280;4660;41.768;26.198;2023-08-21T07:20:40;100827.69;;;30.65;55.41
9249;BME280;4660;41.768;26.198;2023-08-21T07:23:05;100837.75;;;30.82;54.43
9249;BME280;4660;41.768;26.198;2023-08-21T07:25:31;100834.75;;;31.14;52.74
9249;BME280;4660;41.768;26.198;2023-08-21T07:28:01;100834.75;;;31.14;51.70
9249;BME280;4660;41.768;26.198;2023-08-21T07:30:28;100834.00;;;31.23;52.49
9249;BME280;4660;41.768;26.198;2023-08-21T07:32:54;100827.31;;;31.55;49.60
9249;BME280;4660;41.768;26.198;2023-08-21T07:35:20;100807.84;;;31.55;49.23
9249;BME280;4660;41.768;26.198;2023-08-21T07:37:46;100819.25;;;31.74;48.99
9249;BME280;4660;41.768;26.198;2023-08-21T07:40:12;100807.56;;;31.92;46.21
9249;BME280;4660;41.768;26.198;2023-08-21T07:42:38;100827.44;;;32.55;35.31
9249;BME280;4660;41.768;26.198;2023-08-21T07:45:04;100822.50;;;32.97;29.26
9249;BME280;4660;41.768;26.198;2023-08-21T07:47:30;100829.50;;;33.33;27.91
9249;BME280;4660;41.768;26.198;2023-08-21T07:49:56;100840.66;;;33.73;26.73
9249;BME280;4660;41.768;26.198;2023-08-21T07:52:23;100831.00;;;33.94;26.58
9249;BME280;4660;41.768;26.198;2023-08-21T07:54:53;100827.44;;;34.12;25.64
9249;BME280;4660;41.768;26.198;2023-08-21T07:57:19;100841.22;;;34.28;25.03
9249;BME280;4660;41.768;26.198;2023-08-21T07:59:44;100828.88;;;34.34;24.83
9249;BME280;4660;41.768;26.198;2023-08-21T08:02:10;100832.28;;;34.31;24.69
9249;BME280;4660;41.768;26.198;2023-08-21T08:04:39;100838.91;;;34.35;24.73
9249;BME280;4660;41.768;26.198;2023-08-21T08:07:04;100819.72;;;34.28;25.32
9249;BME280;4660;41.768;26.198;2023-08-21T08:09:30;100817.69;;;34.34;25.40
9249;BME280;4660;41.768;26.198;2023-08-21T08:11:56;100824.03;;;34.44;24.74
9249;BME280;4660;41.768;26.198;2023-08-21T08:14:22;100818.19;;;34.41;24.68
9249;BME280;4660;41.768;26.198;2023-08-21T08:16:48;100827.72;;;34.35;25.03
9249;BME280;4660;41.768;26.198;2023-08-21T08:19:13;100810.34;;;34.43;24.69
9249;BME280;4660;41.768;26.198;2023-08-21T08:21:39;100827.09;;;34.43;24.66
9249;BME280;4660;41.768;26.198;2023-08-21T08:24:04;100818.66;;;34.48;24.75
9249;BME280;4660;41.768;26.198;2023-08-21T08:26:30;100803.81;;;34.53;24.28
9249;BME280;4660;41.768;26.198;2023-08-21T08:28:56;100792.50;;;34.39;24.84
9249;BME280;4660;41.768;26.198;2023-08-21T08:31:22;100814.16;;;34.71;23.75
9249;BME280;4660;41.768;26.198;2023-08-21T08:33:49;100810.94;;;34.83;23.91
9249;BME280;4660;41.768;26.198;2023-08-21T08:36:17;100798.63;;;34.84;23.79
9249;BME280;4660;41.768;26.198;2023-08-21T08:38:43;100814.19;;;34.90;24.16
9249;BME280;4660;41.768;26.198;2023-08-21T08:41:18;100809.75;;;35.08;23.82
9249;BME280;4660;41.768;26.198;2023-08-21T08:43:50;100802.97;;;34.95;23.36
9249;BME280;4660;41.768;26.198;2023-08-21T08:46:16;100818.66;;;34.91;23.42
9249;BME280;4660;41.768;26.198;2023-08-21T08:48:43;100808.59;;;34.90;23.64
9249;BME280;4660;41.768;26.198;2023-08-21T08:51:10;100814.06;;;35.00;23.98
9249;BME280;4660;41.768;26.198;2023-08-21T08:53:38;100811.06;;;35.15;24.16
9249;BME280;4660;41.768;26.198;2023-08-21T08:56:04;100811.69;;;35.26;23.68
9249;BME280;4660;41.768;26.198;2023-08-21T08:58:30;100802.16;;;35.27;23.52
9249;BME280;4660;41.768;26.198;2023-08-21T09:00:55;100800.13;;;35.33;23.64
9249;BME280;4660;41.768;26.198;2023-08-21T09:03:22;100805.50;;;35.48;23.95
9249;BME280;4660;41.768;26.198;2023-08-21T09:05:47;100796.06;;;35.57;23.80
9249;BME280;4660;41.768;26.198;2023-08-21T09:08:14;100807.75;;;35.78;23.36
9249;BME280;4660;41.768;26.198;2023-08-21T09:10:40;100780.56;;;35.79;23.61
9249;BME280;4660;41.768;26.198;2023-08-21T09:13:17;100804.00;;;36.02;23.16
9249;BME280;4660;41.768;26.198;2023-08-21T09:15:45;100792.47;;;36.03;22.77
9249;BME280;4660;41.768;26.198;2023-08-21T09:18:12;100810.81;;;35.96;22.56
9249;BME280;4660;41.768;26.198;2023-08-21T09:20:40;100800.31;;;35.88;22.69
9249;BME280;4660;41.768;26.198;2023-08-21T09:23:07;100793.78;;;35.92;22.85
9249;BME280;4660;41.768;26.198;2023-08-21T09:25:39;100803.03;;;35.93;22.44
9249;BME280;4660;41.768;26.198;2023-08-21T09:28:07;100803.09;;;35.88;22.71
9249;BME280;4660;41.768;26.198;2023-08-21T09:30:45;100788.69;;;35.80;22.58
9249;BME280;4660;41.768;26.198;2023-08-21T09:33:12;100800.47;;;35.77;22.58
9249;BME280;4660;41.768;26.198;2023-08-21T09:35:39;100777.06;;;35.73;23.02
9249;BME280;4660;41.768;26.198;2023-08-21T09:38:07;100791.91;;;35.88;23.36
9249;BME280;4660;41.768;26.198;2023-08-21T09:40:33;100776.06;;;35.97;23.51
9249;BME280;4660;41.768;26.198;2023-08-21T09:42:58;100777.81;;;36.06;23.43
9249;BME280;4660;41.768;26.198;2023-08-21T09:45:27;100783.66;;;36.10;23.44
9249;BME280;4660;41.768;26.198;2023-08-21T09:47:54;100758.22;;;36.06;23.69
9249;BME280;4660;41.768;26.198;2023-08-21T09:50:20;100768.59;;;36.20;23.17
9249;BME280;4660;41.768;26.198;2023-08-21T09:52:47;100783.97;;;36.22;23.70
9249;BME280;4660;41.768;26.198;2023-08-21T09:55:14;100773.28;;;36.24;24.05
9249;BME280;4660;41.768;26.198;2023-08-21T09:57:40;100758.47;;;36.37;23.88
9249;BME280;4660;41.768;26.198;2023-08-21T10:00:09;100749.31;;;36.46;24.07
9249;BME280;4660;41.768;26.198;2023-08-21T10:02:46;100760.28;;;36.56;23.71
9249;BME280;4660;41.768;26.198;2023-08-21T10:05:19;100780.38;;;36.72;24.20
9249;BME280;4660;41.768;26.198;2023-08-21T10:07:49;100764.91;;;36.74;23.43
9249;BME280;4660;41.768;26.198;2023-08-21T10:10:17;100749.25;;;36.73;23.48
9249;BME280;4660;41.768;26.198;2023-08-21T10:12:43;100755.13;;;36.85;23.75
9249;BME280;4660;41.768;26.198;2023-08-21T10:15:09;100753.75;;;36.97;23.28
9249;BME280;4660;41.768;26.198;2023-08-21T10:17:39;100761.63;;;37.08;22.69
9249;BME280;4660;41.768;26.198;2023-08-21T10:20:07;100728.66;;;36.78;22.84
9249;BME280;4660;41.768;26.198;2023-08-21T10:22:48;100745.88;;;36.85;22.99
9249;BME280;4660;41.768;26.198;2023-08-21T10:25:22;100758.34;;;36.79;22.23
9249;BME280;4660;41.768;26.198;2023-08-21T10:27:54;100740.06;;;36.81;22.75
9249;BME280;4660;41.768;26.198;2023-08-21T10:30:29;100724.81;;;36.87;23.09
9249;BME280;4660;41.768;26.198;2023-08-21T10:32:58;100730.44;;;37.10;23.06
9249;BME280;4660;41.768;26.198;2023-08-21T10:35:44;100720.78;;;37.25;22.38
9249;BME280;4660;41.768;26.198;2023-08-21T10:38:16;100746.13;;;37.33;22.36
9249;BME280;4660;41.768;26.198;2023-08-21T10:41:07;100742.59;;;37.28;22.63
9249;BME280;4660;41.768;26.198;2023-08-21T10:43:46;100741.59;;;37.46;22.57
9249;BME280;4660;41.768;26.198;2023-08-21T10:46:13;100716.50;;;37.50;22.26
9249;BME280;4660;41.768;26.198;2023-08-21T10:48:42;100733.78;;;37.65;22.30
9249;BME280;4660;41.768;26.198;2023-08-21T10:51:08;100720.69;;;37.61;22.23
9249;BME280;4660;41.768;26.198;2023-08-21T10:53:38;100694.25;;;37.62;22.02
9249;BME280;4660;41.768;26.198;2023-08-21T10:56:06;100725.00;;;37.98;22.08
9249;BME280;4660;41.768;26.198;2023-08-21T10:58:38;100732.84;;;37.79;21.79
9249;BME280;4660;41.768;26.198;2023-08-21T11:01:05;100721.22;;;37.71;21.76
9249;BME280;4660;41.768;26.198;2023-08-21T11:03:30;100699.03;;;37.92;21.71
9249;BME280;4660;41.768;26.198;2023-08-21T11:06:02;100710.81;;;37.72;21.61
9249;BME280;4660;41.768;26.198;2023-08-21T11:08:29;100722.31;;;37.53;21.41
9249;BME280;4660;41.768;26.198;2023-08-21T11:10:55;100716.50;;;37.50;21.10
9249;BME280;4660;41.768;26.198;2023-08-21T11:13:23;100706.66;;;37.61;20.82
9249;BME280;4660;41.768;26.198;2023-08-21T11:15:57;100710.81;;;38.03;20.40
9249;BME280;4660;41.768;26.198;2023-08-21T11:18:32;100703.31;;;38.30;20.22
9249;BME280;4660;41.768;26.198;2023-08-21T11:21:09;100694.22;;;38.50;20.14
9249;BME280;4660;41.768;26.198;2023-08-21T11:23:39;100686.09;;;38.48;20.13
9249;BME280;4660;41.768;26.198;2023-08-21T11:26:10;100716.69;;;38.41;19.56
9249;BME280;4660;41.768;26.198;2023-08-21T11:28:36;100703.13;;;38.26;18.93
9249;BME280;4660;41.768;26.198;2023-08-21T11:31:04;100689.91;;;38.35;19.15
9249;BME280;4660;41.768;26.198;2023-08-21T11:33:31;100670.75;;;38.46;18.81
9249;BME280;4660;41.768;26.198;2023-08-21T11:35:57;100706.00;;;38.78;18.91
9249;BME280;4660;41.768;26.198;2023-08-21T11:38:26;100700.84;;;38.45;18.71
9249;BME280;4660;41.768;26.198;2023-08-21T11:40:57;100704.13;;;38.39;18.53
9249;BME280;4660;41.768;26.198;2023-08-21T11:43:41;100692.41;;;38.45;18.67
9249;BME280;4660;41.768;26.198;2023-08-21T11:46:08;100706.47;;;38.54;18.18
9249;BME280;4660;41.768;26.198;2023-08-21T11:48:37;100691.28;;;38.72;17.32
9249;BME280;4660;41.768;26.198;2023-08-21T11:51:03;100676.72;;;38.70;17.05
9249;BME280;4660;41.768;26.198;2023-08-21T11:53:37;100687.94;;;38.53;17.47
9249;BME280;4660;41.768;26.198;2023-08-21T11:56:11;100695.63;;;38.13;17.71
9249;BME280;4660;41.768;26.198;2023-08-21T11:58:40;100700.31;;;38.26;17.20
9249;BME280;4660;41.768;26.198;2023-08-21T12:01:19;100668.88;;;38.24;17.21
9249;BME280;4660;41.768;26.198;2023-08-21T12:04:15;100699.69;;;38.46;16.72
9249;BME280;4660;41.768;26.198;2023-08-21T12:06:45;100679.31;;;38.41;16.41
9249;BME280;4660;41.768;26.198;2023-08-21T12:09:11;100671.91;;;38.53;16.52
9249;BME280;4660;41.768;26.198;2023-08-21T12:11:37;100691.25;;;38.64;16.80
9249;BME280;4660;41.768;26.198;2023-08-21T12:14:04;100676.38;;;38.72;15.98
9249;BME280;4660;41.768;26.198;2023-08-21T12:16:30;100675.38;;;38.85;15.79
9249;BME280;4660;41.768;26.198;2023-08-21T12:19:02;100683.63;;;38.99;16.30
9249;BME280;4660;41.768;26.198;2023-08-21T12:21:29;100670.69;;;39.06;16.30
9249;BME280;4660;41.768;26.198;2023-08-21T12:23:54;100664.97;;;38.77;16.56
9249;BME280;4660;41.768;26.198;2023-08-21T12:26:20;100675.88;;;38.70;16.52
9249;BME280;4660;41.768;26.198;2023-08-21T12:28:48;100667.28;;;38.75;16.10
9249;BME280;4660;41.768;26.198;2023-08-21T12:31:14;100691.75;;;38.83;16.16
9249;BME280;4660;41.768;26.198;2023-08-21T12:33:41;100680.50;;;38.66;15.96
9249;BME280;4660;41.768;26.198;2023-08-21T12:36:08;100677.34;;;38.67;16.21
9249;BME280;4660;41.768;26.198;2023-08-21T12:38:35;100660.28;;;38.98;16.28
9249;BME280;4660;41.768;26.198;2023-08-21T12:41:02;100672.88;;;39.01;16.10
9249;BME280;4660;41.768;26.198;2023-08-21T12:43:30;100665.41;;;39.05;16.09
9249;BME280;4660;41.768;26.198;2023-08-21T12:45:55;100672.03;;;39.09;16.06
9249;BME280;4660;41.768;26.198;2023-08-21T12:48:21;100674.53;;;38.93;16.14
9249;BME280;4660;41.768;26.198;2023-08-21T12:50:47;100657.50;;;38.64;16.17
9249;BME280;4660;41.768;26.198;2023-08-21T12:53:13;100663.16;;;38.72;15.96
9249;BME280;4660;41.768;26.198;2023-08-21T12:55:38;100660.50;;;38.76;16.00
9249;BME280;4660;41.768;26.198;2023-08-21T12:58:06;100653.16;;;39.09;16.16
9249;BME280;4660;41.768;26.198;2023-08-21T13:00:34;100665.59;;;39.08;16.60